Time;durP1;ratioP1;P1;durP2;ratioP2;P2;SDS_P1;SDS_P2;PMS_P1;PMS_P2;Temp;Humidity;BMP_temperature;BMP_pressure;BME280_temperature;BME280_humidity;BME280_pressure;Samples;Min_cycle;Max_cycle;Signal;HPM_P1;HPM_P2
2022/12/15 00:41:34;;;;;;;10.68;2.90;;;16.00;99.90;;;;;;5034508;28;20041;-69
2022/12/15 00:44:38;;;;;;;8.27;2.78;;;16.00;99.90;;;;;;5034799;28;20052;-69
2022/12/15 00:47:42;;;;;;;17.50;2.95;;;16.00;99.90;;;;;;5033758;28;20036;-70
2022/12/15 00:50:52;;;;;;;12.90;2.55;;;16.00;99.90;;;;;;5034762;28;20052;-69
2022/12/15 01:21:01;;;;;;;14.35;2.58;;;15.50;99.90;;;;;;5033895;28;20119;-69
2022/12/15 01:24:05;;;;;;;10.32;3.47;;;15.50;99.90;;;;;;5034131;28;20496;-69
2022/12/15 01:27:08;;;;;;;11.93;2.83;;;15.40;99.90;;;;;;5033799;28;20064;-69
2022/12/15 01:30:16;;;;;;;6.97;2.47;;;15.40;99.90;;;;;;5033778;28;20052;-69
2022/12/15 01:33:21;;;;;;;11.77;2.78;;;15.30;99.90;;;;;;5033704;28;20045;-68
2022/12/15 01:36:24;;;;;;;14.32;2.30;;;15.30;99.90;;;;;;5033453;28;20048;-69
2022/12/15 01:40:43;;;;;;;8.55;3.00;;;15.10;99.90;;;;;;5033202;28;20519;-69
2022/12/15 01:42:53;;;;;;;12.07;3.08;;;15.10;99.90;;;;;;5033195;28;20040;-69
2022/12/15 01:45:57;;;;;;;5.93;2.70;;;15.00;99.90;;;;;;5033464;28;20040;-69
2022/12/15 01:49:27;;;;;;;11.35;2.75;;;15.00;99.90;;;;;;5032469;28;20048;-69
2022/12/15 01:52:31;;;;;;;11.63;2.90;;;15.00;99.90;;;;;;5033420;28;20299;-68
2022/12/15 01:55:37;;;;;;;21.10;3.10;;;15.00;99.90;;;;;;5032949;28;20607;-68
2022/12/15 01:58:43;;;;;;;7.97;2.38;;;14.90;99.90;;;;;;5033114;28;20060;-68
2022/12/15 02:01:47;;;;;;;8.13;2.47;;;14.90;99.90;;;;;;5043886;28;20040;-69
2022/12/15 02:04:55;;;;;;;11.70;2.90;;;14.90;99.90;;;;;;5033209;28;20044;-69
2022/12/15 02:08:00;;;;;;;10.38;2.40;;;15.00;99.90;;;;;;5033119;28;20040;-68
2022/12/15 02:11:28;;;;;;;13.05;2.70;;;15.00;99.90;;;;;;5033078;28;20048;-69
2022/12/15 02:14:58;;;;;;;5.85;1.95;;;14.90;99.90;;;;;;5032047;28;20045;-68
2022/12/15 02:18:21;;;;;;;8.03;2.40;;;14.80;99.90;;;;;;5032813;28;20064;-69
2022/12/15 02:21:28;;;;;;;7.63;2.47;;;14.80;99.90;;;;;;5032209;28;20044;-69
2022/12/15 02:25:16;;;;;;;11.60;3.08;;;14.80;99.90;;;;;;5032529;28;20044;-69
2022/12/15 02:28:38;;;;;;;7.53;2.42;;;14.80;99.90;;;;;;5032466;28;20040;-70
2022/12/15 02:31:58;;;;;;;8.40;2.70;;;14.80;99.90;;;;;;5032526;28;20199;-69
2022/12/15 02:35:09;;;;;;;12.02;2.88;;;14.80;99.90;;;;;;5032326;28;20044;-69
2022/12/15 02:38:13;;;;;;;12.13;3.17;;;14.80;99.90;;;;;;5032442;28;20053;-69
2022/12/15 02:41:36;;;;;;;10.52;2.53;;;14.80;99.90;;;;;;5032660;28;20060;-68
2022/12/15 02:44:52;;;;;;;4.80;2.30;;;14.70;99.90;;;;;;5032715;28;20052;-69
2022/12/15 02:48:10;;;;;;;10.90;3.28;;;14.70;99.90;;;;;;5032049;28;20044;-68
2022/12/15 02:51:33;;;;;;;12.38;3.63;;;14.60;99.90;;;;;;5032584;28;20036;-69
2022/12/15 02:54:57;;;;;;;14.55;3.35;;;14.50;99.90;;;;;;5031981;28;20060;-68
2022/12/15 02:58:13;;;;;;;9.13;3.08;;;14.40;99.90;;;;;;5031987;28;20060;-70
2022/12/15 03:01:24;;;;;;;10.13;2.90;;;14.40;99.90;;;;;;5032455;28;20052;-70
2022/12/15 03:04:32;;;;;;;12.40;3.55;;;14.40;99.90;;;;;;5042465;28;20056;-69
2022/12/15 03:07:36;;;;;;;9.35;4.30;;;14.30;99.90;;;;;;5032019;28;20044;-69
2022/12/15 03:11:00;;;;;;;11.55;4.55;;;14.20;99.90;;;;;;5032079;28;20052;-68
2022/12/15 03:14:04;;;;;;;10.93;5.10;;;14.20;99.90;;;;;;5031579;28;20045;-69
2022/12/15 03:17:08;;;;;;;16.80;5.40;;;14.20;99.90;;;;;;5031543;28;20041;-69
2022/12/15 03:20:12;;;;;;;15.10;5.40;;;14.30;99.90;;;;;;5031756;28;20045;-69
2022/12/15 03:23:16;;;;;;;19.13;5.78;;;14.30;99.90;;;;;;5031498;28;20041;-69
2022/12/15 03:26:20;;;;;;;16.60;5.18;;;14.30;99.90;;;;;;5030979;28;20091;-69
2022/12/15 03:29:24;;;;;;;16.08;5.60;;;14.30;99.90;;;;;;5042034;28;20389;-69
2022/12/15 03:32:28;;;;;;;14.00;6.43;;;14.30;99.90;;;;;;5031788;28;20389;-68
2022/12/15 03:35:33;;;;;;;19.38;6.95;;;14.30;99.90;;;;;;5031235;28;20037;-69
2022/12/15 03:38:37;;;;;;;12.20;6.43;;;14.30;99.90;;;;;;5031344;28;20409;-68
2022/12/15 03:41:41;;;;;;;19.17;6.72;;;14.30;99.90;;;;;;5031176;28;20500;-68
2022/12/15 03:44:45;;;;;;;19.70;6.50;;;14.30;99.90;;;;;;5031230;28;20041;-68
2022/12/15 03:47:50;;;;;;;12.80;5.82;;;14.20;99.90;;;;;;5031445;28;20064;-69
2022/12/15 03:50:54;;;;;;;15.82;6.20;;;14.20;99.90;;;;;;5030991;28;20044;-69
2022/12/15 03:53:58;;;;;;;17.58;6.22;;;14.10;99.90;;;;;;5030947;28;20500;-68
2022/12/15 03:57:02;;;;;;;20.35;7.00;;;14.20;99.90;;;;;;5031303;28;20048;-69
2022/12/15 04:00:06;;;;;;;14.63;6.55;;;14.10;99.90;;;;;;5030432;28;20623;-69
2022/12/15 04:03:16;;;;;;;15.27;6.45;;;14.10;99.90;;;;;;5031166;28;20048;-68
2022/12/15 04:06:21;;;;;;;18.10;7.05;;;14.00;99.90;;;;;;5031113;28;20052;-69
2022/12/15 04:09:25;;;;;;;18.05;6.32;;;14.00;99.90;;;;;;5030396;28;20044;-68
2022/12/15 04:12:29;;;;;;;20.75;6.13;;;14.00;99.90;;;;;;5035113;28;20049;-69
2022/12/15 04:15:34;;;;;;;17.25;6.85;;;14.00;99.90;;;;;;5045480;28;20056;-69
2022/12/15 04:18:41;;;;;;;14.00;6.65;;;;;;;;;;5035054;28;20056;-69
2022/12/15 04:21:45;;;;;;;17.23;7.10;;;13.80;99.90;;;;;;5034982;28;20037;-69
2022/12/15 05:32:24;;;;;;;9.13;3.80;;;13.70;99.90;;;;;;5033630;28;20044;-69
2022/12/15 05:35:29;;;;;;;9.75;3.80;;;13.60;99.90;;;;;;5033413;28;20036;-69
2022/12/15 05:38:33;;;;;;;14.13;4.50;;;13.20;99.90;;;;;;5033447;28;20052;-68
2022/12/15 05:41:36;;;;;;;11.50;3.70;;;13.50;99.90;;;;;;5032673;28;20045;-69
2022/12/15 05:44:40;;;;;;;13.35;4.47;;;13.60;99.90;;;;;;5033410;28;20048;-69
2022/12/15 05:47:50;;;;;;;13.93;4.05;;;13.60;99.90;;;;;;5032571;28;20044;-69
2022/12/15 05:50:54;;;;;;;10.43;4.63;;;13.70;99.90;;;;;;5044012;28;20406;-69
2022/12/15 05:53:58;;;;;;;11.48;4.15;;;13.70;99.90;;;;;;5033084;28;20060;-68
2022/12/15 05:57:02;;;;;;;10.73;4.38;;;13.80;99.90;;;;;;5033254;28;20523;-68
2022/12/15 06:00:06;;;;;;;10.95;4.30;;;13.90;99.90;;;;;;5033212;28;20056;-68
2022/12/15 06:03:15;;;;;;;15.55;4.70;;;13.80;99.90;;;;;;5033218;28;20049;-69
2022/12/15 06:06:19;;;;;;;11.15;4.28;;;13.80;99.90;;;;;;5032701;28;20508;-69
2022/12/15 06:09:23;;;;;;;14.07;4.90;;;13.80;99.90;;;;;;5033028;28;20041;-68
2022/12/15 06:12:28;;;;;;;13.68;5.05;;;13.80;99.90;;;;;;5033208;28;20508;-68
2022/12/15 06:15:32;;;;;;;9.25;5.57;;;13.80;99.90;;;;;;5031712;28;20409;-69
2022/12/15 06:18:38;;;;;;;15.52;5.20;;;13.80;99.90;;;;;;5032897;28;20056;-69
2022/12/15 06:21:42;;;;;;;10.20;4.88;;;13.80;99.90;;;;;;5032847;28;20049;-70
2022/12/15 06:24:46;;;;;;;10.80;3.92;;;13.80;99.90;;;;;;5032671;28;20049;-69
2022/12/15 06:27:51;;;;;;;13.88;3.88;;;;;;;;;;5032848;28;20048;-70
2022/12/15 06:31:01;;;;;;;12.95;5.03;;;14.00;99.90;;;;;;5032786;28;20389;-70
2022/12/15 06:34:10;;;;;;;10.50;4.00;;;14.00;99.90;;;;;;5030735;28;20060;-69
2022/12/15 06:37:14;;;;;;;14.45;4.10;;;14.00;99.90;;;;;;5032996;28;20056;-71
2022/12/15 06:40:18;;;;;;;9.43;3.80;;;14.10;99.90;;;;;;5032529;28;20052;-69
2022/12/15 06:43:21;;;;;;;8.55;4.32;;;14.10;99.90;;;;;;5031717;28;20498;-71
2022/12/15 06:46:26;;;;;;;10.55;4.88;;;14.10;99.90;;;;;;5032677;28;20520;-70
2022/12/15 06:49:30;;;;;;;10.07;4.43;;;14.20;99.90;;;;;;5031756;28;20514;-69
2022/12/15 06:52:35;;;;;;;10.15;5.57;;;14.30;99.90;;;;;;5032038;28;20040;-70
2022/12/15 06:55:39;;;;;;;14.48;6.03;;;14.30;99.90;;;;;;5043413;28;20052;-72
2022/12/15 06:58:43;;;;;;;17.58;6.05;;;14.30;99.90;;;;;;5032379;28;20052;-70
2022/12/15 07:01:47;;;;;;;17.73;8.07;;;14.30;99.90;;;;;;5033032;28;20044;-71
2022/12/15 07:04:52;;;;;;;13.65;6.78;;;14.30;99.90;;;;;;5032923;28;20041;-72
2022/12/15 07:07:56;;;;;;;13.10;4.30;;;14.20;99.90;;;;;;5032290;28;20044;-70
2022/12/15 07:11:02;;;;;;;10.88;4.18;;;14.20;99.90;;;;;;5032304;28;20048;-70
2022/12/15 07:14:08;;;;;;;12.40;5.75;;;14.30;99.90;;;;;;5033209;28;20045;-71
2022/12/15 07:17:11;;;;;;;10.68;4.85;;;14.30;99.90;;;;;;5033295;28;20528;-69
2022/12/15 07:20:15;;;;;;;11.27;4.70;;;14.30;99.90;;;;;;5032556;28;20480;-68
2022/12/15 07:23:20;;;;;;;13.07;5.45;;;14.30;99.90;;;;;;5032586;28;20261;-70
2022/12/15 07:26:24;;;;;;;10.80;4.80;;;14.30;99.90;;;;;;5042904;28;20040;-69
2022/12/15 07:29:31;;;;;;;19.60;8.63;;;14.30;99.90;;;;;;5042988;28;20465;-70
2022/12/15 07:32:34;;;;;;;16.58;6.18;;;14.30;99.90;;;;;;5033060;28;20048;-70
2022/12/15 07:35:38;;;;;;;12.30;4.70;;;14.40;99.90;;;;;;5031166;28;20056;-71
2022/12/15 07:38:44;;;;;;;15.27;5.32;;;14.40;99.90;;;;;;5032891;28;20052;-71
2022/12/15 07:41:49;;;;;;;12.77;5.10;;;14.50;99.90;;;;;;5032393;28;20060;-70
2022/12/15 07:44:53;;;;;;;13.80;5.45;;;14.50;99.90;;;;;;5030754;28;20052;-70
2022/12/15 07:47:57;;;;;;;11.57;4.88;;;14.50;99.90;;;;;;5042450;28;20049;-69
2022/12/15 07:51:06;;;;;;;10.10;4.85;;;14.50;99.90;;;;;;5030966;28;20048;-68
2022/12/15 07:54:11;;;;;;;18.35;4.88;;;14.50;99.90;;;;;;5030840;28;20056;-68
2022/12/15 07:57:15;;;;;;;11.85;5.57;;;14.60;99.90;;;;;;5030948;28;20504;-68
2022/12/15 08:00:19;;;;;;;12.63;7.07;;;14.60;99.90;;;;;;5030966;28;20057;-68
2022/12/15 08:03:23;;;;;;;10.82;5.90;;;14.70;99.90;;;;;;5031002;28;20052;-69
2022/12/15 08:06:28;;;;;;;19.83;7.57;;;14.80;99.90;;;;;;5031335;28;20405;-69
2022/12/15 08:09:32;;;;;;;18.98;7.95;;;14.80;99.90;;;;;;5031583;28;20152;-72
2022/12/15 08:12:36;;;;;;;16.50;7.63;;;14.90;99.90;;;;;;5031231;28;20064;-69
2022/12/15 08:15:40;;;;;;;12.63;7.03;;;15.00;99.90;;;;;;5031097;28;20113;-70
2022/12/15 08:18:47;;;;;;;14.93;6.85;;;15.20;99.90;;;;;;5031792;28;20060;-69
2022/12/15 08:21:51;;;;;;;11.85;6.32;;;15.50;99.90;;;;;;5032417;28;20056;-70
2022/12/15 08:24:54;;;;;;;17.98;7.80;;;15.70;99.90;;;;;;5031989;28;20436;-72
2022/12/15 08:27:59;;;;;;;13.82;7.80;;;16.00;99.90;;;;;;5032080;28;20048;-70
2022/12/15 08:31:05;;;;;;;23.05;7.57;;;16.20;99.90;;;;;;5031669;28;20048;-69
2022/12/15 08:34:10;;;;;;;16.10;8.30;;;16.20;99.90;;;;;;5032746;28;20401;-69
2022/12/15 08:37:14;;;;;;;18.08;10.38;;;16.40;99.90;;;;;;5031202;28;20504;-68
2022/12/15 08:40:20;;;;;;;27.70;14.90;;;16.60;99.90;;;;;;5032089;28;20053;-69
2022/12/15 08:43:24;;;;;;;15.55;7.88;;;16.80;99.90;;;;;;5031453;28;20040;-68
2022/12/15 08:46:30;;;;;;;11.15;6.95;;;16.90;99.90;;;;;;5031523;28;20053;-67
2022/12/15 08:49:35;;;;;;;14.00;8.35;;;16.90;99.90;;;;;;5031044;28;20049;-68
2022/12/15 08:52:41;;;;;;;13.50;7.15;;;17.10;99.90;;;;;;5032079;28;20432;-69
2022/12/15 08:55:45;;;;;;;10.32;6.25;;;17.30;99.90;;;;;;5030730;28;20508;-71
2022/12/15 08:58:57;;;;;;;9.95;5.20;;;17.50;99.90;;;;;;5034201;28;20052;-69
2022/12/15 09:02:02;;;;;;;10.20;5.32;;;17.70;99.90;;;;;;5034875;28;20060;-69
2022/12/15 09:05:06;;;;;;;8.27;4.95;;;17.80;99.90;;;;;;5035366;28;20064;-68
2022/12/15 09:08:10;;;;;;;16.48;4.55;;;17.80;99.90;;;;;;5035492;28;20053;-69
2022/12/15 09:11:14;;;;;;;12.10;5.75;;;17.80;99.90;;;;;;5034518;28;20046;-69
2022/12/15 09:14:18;;;;;;;13.20;5.40;;;17.60;99.90;;;;;;5034764;28;20053;-70
2022/12/15 09:17:22;;;;;;;12.93;5.00;;;17.40;99.90;;;;;;5034937;28;20057;-70
2022/12/15 09:20:27;;;;;;;11.77;4.82;;;17.20;99.90;;;;;;5033354;28;20069;-68
2022/12/15 09:23:31;;;;;;;8.35;4.60;;;17.10;99.90;;;;;;5033671;28;20049;-70
2022/12/15 09:26:35;;;;;;;7.65;4.70;;;17.00;99.90;;;;;;5033420;28;20044;-69
2022/12/15 09:29:39;;;;;;;9.55;4.75;;;17.30;99.90;;;;;;5033739;28;20041;-68
2022/12/15 09:32:43;;;;;;;10.73;4.07;;;17.60;99.90;;;;;;5033986;28;20519;-70
2022/12/15 09:35:50;;;;;;;11.38;4.75;;;17.70;99.90;;;;;;5034106;28;20059;-69
2022/12/15 09:38:54;;;;;;;8.30;4.72;;;18.10;99.90;;;;;;5033316;28;20052;-68
2022/12/15 09:41:59;;;;;;;7.80;3.92;;;18.20;99.90;;;;;;5034377;28;20048;-70
2022/12/15 09:45:16;;;;;;;8.13;4.03;;;18.10;99.90;;;;;;5033912;28;20068;-71
2022/12/15 09:48:23;;;;;;;11.95;4.38;;;18.10;99.90;;;;;;5033550;28;20044;-71
2022/12/15 09:51:57;;;;;;;10.20;4.70;;;18.10;99.90;;;;;;5033789;28;20505;-70
2022/12/15 09:55:04;;;;;;;11.00;4.45;;;17.90;99.90;;;;;;5034303;28;20060;-73
2022/12/15 09:58:31;;;;;;;9.15;2.92;;;17.80;99.90;;;;;;5033036;28;20048;-69
2022/12/15 10:01:35;;;;;;;7.85;2.38;;;17.60;99.90;;;;;;5033628;28;20499;-68
2022/12/15 10:04:51;;;;;;;6.47;2.75;;;17.50;99.90;;;;;;5032956;28;20045;-70
2022/12/15 10:08:00;;;;;;;5.70;2.15;;;17.50;99.90;;;;;;5032460;28;20092;-69
2022/12/15 10:11:25;;;;;;;5.65;2.20;;;17.50;99.90;;;;;;5033231;28;20044;-69
2022/12/15 10:14:38;;;;;;;11.13;3.83;;;17.60;99.90;;;;;;5033063;28;20053;-70
2022/12/15 10:17:47;;;;;;;5.85;1.83;;;18.00;99.90;;;;;;5033040;28;20045;-74
2022/12/15 10:21:00;;;;;;;9.80;2.13;;;18.40;99.90;;;;;;5034379;28;20064;-71
2022/12/15 10:24:11;;;;;;;4.70;1.73;;;18.70;99.90;;;;;;5033906;28;20041;-71
2022/12/15 10:27:56;;;;;;;6.63;1.50;;;18.90;99.90;;;;;;5033342;28;20049;-71
2022/12/15 10:31:15;;;;;;;7.40;1.90;;;19.00;99.90;;;;;;5009158;28;20072;-72
2022/12/15 10:34:30;;;;;;;7.25;2.00;;;19.10;99.90;;;;;;5000148;28;20053;-71
2022/12/15 10:37:35;;;;;;;6.53;2.20;;;19.10;99.90;;;;;;5031799;28;20056;-71
2022/12/15 10:40:45;;;;;;;8.77;3.03;;;19.00;99.90;;;;;;5031046;28;20052;-72
2022/12/15 10:43:51;;;;;;;10.32;2.80;;;18.80;99.90;;;;;;5033775;28;20072;-72
2022/12/15 10:46:55;;;;;;;17.98;3.30;;;18.90;99.90;;;;;;5033432;28;20052;-72
2022/12/15 10:50:17;;;;;;;8.20;2.45;;;18.70;99.90;;;;;;5033116;28;20041;-72
2022/12/15 10:53:45;;;;;;;9.93;2.72;;;18.60;99.90;;;;;;5033594;28;20053;-71
2022/12/15 10:56:51;;;;;;;15.02;3.38;;;18.50;99.90;;;;;;5031940;28;20056;-73
2022/12/15 11:00:23;;;;;;;9.75;2.33;;;18.30;99.90;;;;;;5032251;28;20052;-69
2022/12/15 11:03:28;;;;;;;7.72;2.78;;;18.30;99.90;;;;;;5032596;28;20045;-70
2022/12/15 11:06:35;;;;;;;8.55;2.33;;;18.20;99.90;;;;;;5032241;28;20053;-70
2022/12/15 11:09:47;;;;;;;15.23;2.70;;;18.10;99.90;;;;;;5032633;28;20040;-70
2022/12/15 11:13:16;;;;;;;13.00;2.75;;;18.10;99.90;;;;;;5031805;28;20056;-70
2022/12/15 11:16:20;;;;;;;6.38;2.30;;;18.10;99.90;;;;;;5031995;28;20052;-70
2022/12/15 11:20:10;;;;;;;6.38;2.53;;;18.10;99.90;;;;;;5031598;28;20060;-69
2022/12/15 11:23:41;;;;;;;11.82;2.63;;;18.10;99.90;;;;;;5032332;28;20044;-70
2022/12/15 11:26:45;;;;;;;;;;;18.00;99.90;;;;;;5032682;28;20044;-69
2022/12/15 11:30:13;;;;;;;11.93;2.45;;;18.00;99.90;;;;;;5031276;28;19909;-72
2022/12/15 11:33:18;;;;;;;9.52;2.40;;;18.00;99.90;;;;;;5032069;28;20048;-71
2022/12/15 11:36:37;;;;;;;9.75;1.80;;;18.00;99.90;;;;;;5032847;28;20052;-73
2022/12/15 11:40:23;;;;;;;7.43;2.28;;;18.00;99.90;;;;;;5032405;28;20056;-70
2022/12/15 11:43:39;;;;;;;6.68;1.75;;;18.00;99.90;;;;;;5031927;28;20048;-72
2022/12/15 11:47:17;;;;;;;6.25;2.00;;;17.90;99.90;;;;;;5031557;28;20052;-69
2022/12/15 11:50:35;;;;;;;9.45;2.05;;;17.90;99.90;;;;;;5031315;28;20063;-68
2022/12/15 11:53:59;;;;;;;14.93;2.45;;;17.90;99.90;;;;;;5031052;28;20044;-69
2022/12/15 11:57:25;;;;;;;11.70;2.20;;;17.90;99.90;;;;;;5031091;28;20052;-71
2022/12/15 12:00:36;;;;;;;9.27;2.08;;;17.90;99.90;;;;;;5031089;28;20056;-70
2022/12/15 12:04:12;;;;;;;8.45;2.13;;;17.90;99.90;;;;;;5030873;28;20036;-68
2022/12/15 12:07:34;;;;;;;6.32;1.98;;;17.90;99.90;;;;;;5032422;28;20397;-71
2022/12/15 12:10:55;;;;;;;6.93;2.08;;;18.00;99.90;;;;;;5042496;28;20040;-69
2022/12/15 12:14:53;;;;;;;7.25;1.90;;;18.00;99.90;;;;;;5030719;28;20048;-69
2022/12/15 12:18:27;;;;;;;7.03;3.63;;;18.10;99.90;;;;;;5010643;28;20044;-70
2022/12/15 12:21:37;;;;;;;6.13;1.98;;;18.10;99.90;;;;;;5031206;28;20068;-69
2022/12/15 12:24:46;;;;;;;9.52;2.10;;;18.10;99.90;;;;;;5030699;28;20044;-69
2022/12/15 12:28:16;;;;;;;8.05;1.83;;;18.10;99.90;;;;;;5031113;28;20607;-69
2022/12/15 12:31:42;;;;;;;7.45;1.85;;;18.20;99.90;;;;;;5031976;28;20504;-70
2022/12/15 12:35:20;;;;;;;7.15;1.63;;;18.20;99.90;;;;;;5033655;28;20112;-69
2022/12/15 12:38:32;;;;;;;10.38;1.80;;;18.20;99.90;;;;;;5035102;28;20052;-69
2022/12/15 12:41:45;;;;;;;5.78;1.45;;;18.10;99.90;;;;;;5033875;28;20044;-70
2022/12/15 12:44:49;;;;;;;7.50;1.73;;;18.10;99.90;;;;;;5034618;28;20068;-70
2022/12/15 12:47:58;;;;;;;9.13;1.80;;;18.10;99.90;;;;;;5034762;28;20040;-70
2022/12/15 12:51:34;;;;;;;7.38;1.65;;;18.00;99.90;;;;;;5034509;28;20037;-70
2022/12/15 12:54:41;;;;;;;9.00;1.90;;;18.00;99.90;;;;;;5044613;28;20056;-71
2022/12/15 12:57:46;;;;;;;7.25;1.60;;;18.10;99.90;;;;;;5035181;28;20053;-70
2022/12/15 13:01:17;;;;;;;9.60;2.08;;;18.10;99.90;;;;;;5034493;28;20052;-70
2022/12/15 13:04:48;;;;;;;6.63;1.40;;;18.00;99.90;;;;;;5033828;28;20408;-70
2022/12/15 13:08:17;;;;;;;10.05;1.65;;;18.10;99.90;;;;;;5034203;28;20056;-69
2022/12/15 13:11:46;;;;;;;6.40;1.92;;;18.10;99.90;;;;;;5034770;28;20068;-71
2022/12/15 13:14:53;;;;;;;16.73;1.67;;;18.10;99.90;;;;;;5034633;28;20045;-70
2022/12/15 13:18:00;;;;;;;7.90;1.73;;;18.20;99.90;;;;;;5034799;28;20425;-69
2022/12/15 13:21:34;;;;;;;9.43;1.60;;;18.10;99.90;;;;;;5034123;28;20051;-70
2022/12/15 13:24:46;;;;;;;8.95;1.77;;;18.10;99.90;;;;;;5033361;28;20425;-70
2022/12/15 13:27:52;;;;;;;11.23;1.58;;;18.10;99.90;;;;;;5034044;28;20053;-69
2022/12/15 13:31:15;;;;;;;6.00;1.60;;;18.10;99.90;;;;;;5034281;28;20048;-68
2022/12/15 13:34:21;;;;;;;7.30;1.70;;;18.10;99.90;;;;;;5044338;28;20125;-70
2022/12/15 13:37:47;;;;;;;8.85;1.90;;;18.00;99.90;;;;;;5034165;28;20116;-68
2022/12/15 13:40:53;;;;;;;5.18;1.25;;;18.10;99.90;;;;;;5034431;28;20121;-69
2022/12/15 13:43:59;;;;;;;7.13;1.45;;;18.10;99.90;;;;;;5032943;28;20041;-73
2022/12/15 13:47:28;;;;;;;12.27;1.60;;;18.10;99.90;;;;;;5034260;28;20079;-71
2022/12/15 13:50:42;;;;;;;11.82;1.83;;;18.10;99.90;;;;;;5034402;28;20116;-70
2022/12/15 13:54:14;;;;;;;11.20;2.13;;;18.10;99.90;;;;;;5033890;28;20045;-68
2022/12/15 13:57:21;;;;;;;11.20;1.70;;;18.10;99.90;;;;;;5033252;28;20056;-68
2022/12/15 14:00:25;;;;;;;11.02;2.60;;;18.10;99.90;;;;;;5033326;28;20056;-70
2022/12/15 14:03:29;;;;;;;6.68;1.80;;;18.00;99.90;;;;;;5033360;28;20041;-68
2022/12/15 14:06:36;;;;;;;10.55;1.90;;;18.10;99.90;;;;;;5033686;28;20053;-68
2022/12/15 14:09:41;;;;;;;5.90;1.75;;;18.10;99.90;;;;;;5033345;28;20500;-68
2022/12/15 14:12:47;;;;;;;14.68;1.95;;;18.10;99.90;;;;;;5032964;28;20052;-69
2022/12/15 14:15:55;;;;;;;5.10;1.63;;;18.10;99.90;;;;;;5033182;28;20044;-69
2022/12/15 14:19:17;;;;;;;8.40;2.72;;;18.00;99.90;;;;;;5033146;28;20044;-69
2022/12/15 14:22:25;;;;;;;11.15;2.00;;;18.00;99.90;;;;;;5032850;28;20238;-69
2022/12/15 14:25:29;;;;;;;10.05;2.50;;;18.00;99.90;;;;;;5033194;28;20036;-69
2022/12/15 14:28:36;;;;;;;9.68;1.90;;;18.00;99.90;;;;;;5033125;28;20045;-69
2022/12/15 14:31:40;;;;;;;9.93;3.10;;;18.00;99.90;;;;;;5032859;28;20040;-69
2022/12/15 14:34:44;;;;;;;9.65;2.85;;;17.90;99.90;;;;;;5033156;28;20152;-68
2022/12/15 14:37:49;;;;;;;18.73;2.83;;;17.90;99.90;;;;;;5032720;28;20500;-69
2022/12/15 14:40:56;;;;;;;9.40;2.63;;;17.80;99.90;;;;;;5032158;28;20052;-68
2022/12/15 14:44:22;;;;;;;13.68;2.33;;;17.80;99.90;;;;;;5032908;28;20385;-69
2022/12/15 14:47:29;;;;;;;7.95;2.03;;;17.80;99.90;;;;;;5032497;28;20049;-68
2022/12/15 14:50:35;;;;;;;7.75;2.10;;;17.80;99.90;;;;;;5043112;28;20043;-68
2022/12/15 14:53:41;;;;;;;13.35;2.78;;;17.80;99.90;;;;;;5032344;28;20045;-69
2022/12/15 14:56:59;;;;;;;9.43;2.55;;;17.70;99.90;;;;;;5042052;28;20061;-70
2022/12/15 15:00:29;;;;;;;11.73;2.75;;;17.70;99.90;;;;;;5031975;28;20048;-69
2022/12/15 15:03:38;;;;;;;7.57;2.65;;;17.70;99.90;;;;;;5032179;28;20401;-70
2022/12/15 15:06:42;;;;;;;14.20;3.55;;;17.60;99.90;;;;;;5031813;28;20044;-71
2022/12/15 15:09:46;;;;;;;15.60;3.45;;;17.60;99.90;;;;;;5031401;28;20056;-70
2022/12/15 15:12:53;;;;;;;11.63;2.70;;;17.60;99.90;;;;;;5042752;28;20091;-69
2022/12/15 15:16:05;;;;;;;6.70;2.60;;;17.60;99.90;;;;;;5031081;28;20504;-70
2022/12/15 15:19:20;;;;;;;;;;;17.50;99.90;;;;;;5032136;28;20522;-69
2022/12/15 15:22:39;;;;;;;9.77;2.40;;;17.50;99.90;;;;;;5032492;28;19909;-72
2022/12/15 15:25:56;;;;;;;11.65;3.28;;;17.50;99.90;;;;;;5043157;28;20056;-71
2022/12/15 15:29:04;;;;;;;8.63;2.65;;;17.40;99.90;;;;;;5031621;28;20044;-69
2022/12/15 15:32:17;;;;;;;13.55;3.45;;;17.40;99.90;;;;;;5032348;28;20044;-70
2022/12/15 15:35:23;;;;;;;11.35;3.90;;;17.30;99.90;;;;;;5031897;28;20048;-70
2022/12/15 15:38:36;;;;;;;16.45;4.38;;;17.30;99.90;;;;;;5032129;28;20036;-70
2022/12/15 15:41:41;;;;;;;13.45;5.03;;;17.30;99.90;;;;;;5032791;28;20056;-69
2022/12/15 15:44:46;;;;;;;14.98;5.05;;;17.20;99.90;;;;;;5031048;28;20523;-71
2022/12/15 15:47:51;;;;;;;14.98;5.40;;;17.20;99.90;;;;;;5033669;28;20048;-72
2022/12/15 15:50:56;;;;;;;15.23;4.82;;;17.20;99.90;;;;;;5030583;28;20465;-70
2022/12/15 15:54:07;;;;;;;16.05;5.05;;;17.10;99.90;;;;;;5031635;28;20064;-72
2022/12/15 15:57:16;;;;;;;24.40;6.38;;;17.10;99.90;;;;;;5031169;28;20056;-70
2022/12/15 16:00:23;;;;;;;14.55;4.60;;;17.10;99.90;;;;;;5030477;28;20072;-71
2022/12/15 16:03:28;;;;;;;15.80;4.97;;;17.20;99.90;;;;;;5031358;28;20381;-70
2022/12/15 16:06:33;;;;;;;11.20;5.60;;;17.10;99.90;;;;;;5033557;28;20496;-70
2022/12/15 16:09:37;;;;;;;14.90;5.90;;;17.10;99.90;;;;;;5037996;28;20103;-71
2022/12/15 16:12:48;;;;;;;19.05;6.65;;;17.10;99.90;;;;;;5037833;28;20040;-70
2022/12/15 16:15:53;;;;;;;18.42;7.22;;;17.10;99.90;;;;;;5036732;28;20040;-70
2022/12/15 16:18:57;;;;;;;15.93;6.30;;;17.10;99.90;;;;;;5038101;28;20041;-69
2022/12/15 16:22:01;;;;;;;11.70;4.95;;;17.00;99.90;;;;;;5038133;28;20060;-69
2022/12/15 16:25:20;;;;;;;12.15;5.78;;;17.00;99.90;;;;;;5037914;28;20058;-71
2022/12/15 16:28:29;;;;;;;14.98;5.38;;;17.00;99.90;;;;;;5037730;28;20312;-70
2022/12/15 16:31:35;;;;;;;14.00;6.10;;;17.00;99.90;;;;;;5036652;28;20040;-70
2022/12/15 16:34:40;;;;;;;17.83;8.00;;;17.00;99.90;;;;;;5038633;28;20060;-71
2022/12/15 16:37:48;;;;;;;22.30;9.68;;;17.00;99.90;;;;;;5038718;28;20064;-69
2022/12/15 16:40:53;;;;;;;23.90;10.75;;;17.00;99.90;;;;;;5038517;28;20060;-71
2022/12/15 16:43:58;;;;;;;23.88;9.57;;;17.00;99.90;;;;;;5039181;28;20048;-70
2022/12/15 16:47:02;;;;;;;14.05;7.03;;;17.00;99.90;;;;;;5039066;28;20044;-70
2022/12/15 16:50:08;;;;;;;14.10;6.28;;;17.00;99.90;;;;;;5026862;28;20500;-72
2022/12/15 16:53:16;;;;;;;16.95;6.90;;;16.90;99.90;;;;;;5038142;28;20049;-70
2022/12/15 16:56:20;;;;;;;14.57;6.88;;;16.90;99.90;;;;;;5037836;28;20385;-70
2022/12/15 16:59:26;;;;;;;15.40;7.22;;;17.00;99.90;;;;;;5037617;28;20052;-71
2022/12/15 17:02:32;;;;;;;13.90;8.30;;;17.00;99.90;;;;;;5038121;28;20052;-71
2022/12/15 17:05:36;;;;;;;18.90;8.90;;;16.90;99.90;;;;;;5037872;28;20048;-72
2022/12/15 17:08:53;;;;;;;15.38;7.10;;;16.90;99.90;;;;;;5037352;28;20044;-69
2022/12/15 17:11:58;;;;;;;13.35;7.60;;;16.90;99.90;;;;;;5037116;28;20048;-72
2022/12/15 17:15:15;;;;;;;15.63;6.72;;;16.90;99.90;;;;;;5037315;28;20393;-69
2022/12/15 17:18:20;;;;;;;18.13;7.03;;;16.90;99.90;;;;;;5034643;28;20053;-69
2022/12/15 17:21:33;;;;;;;16.42;6.72;;;16.90;99.90;;;;;;5033890;28;20381;-68
2022/12/15 17:24:38;;;;;;;17.73;8.98;;;16.90;99.90;;;;;;5033713;28;20044;-72
2022/12/15 17:27:43;;;;;;;14.27;7.53;;;16.90;99.90;;;;;;5033573;28;20107;-71
2022/12/15 17:30:49;;;;;;;18.02;8.50;;;16.90;99.90;;;;;;5032906;28;20041;-70
2022/12/15 17:33:54;;;;;;;14.20;6.85;;;16.80;99.90;;;;;;5034509;28;20056;-70
2022/12/15 17:37:04;;;;;;;11.20;5.68;;;16.80;99.90;;;;;;5033914;28;20056;-69
2022/12/15 17:40:20;;;;;;;12.93;5.53;;;16.90;99.90;;;;;;5033836;28;20053;-69
2022/12/15 17:43:25;;;;;;;14.77;5.50;;;16.90;99.90;;;;;;5033293;28;20484;-68
2022/12/15 17:46:30;;;;;;;16.17;5.75;;;16.90;99.90;;;;;;5033437;28;20049;-69
2022/12/15 17:49:34;;;;;;;9.68;5.07;;;16.90;99.90;;;;;;5043971;28;20492;-71
2022/12/15 17:52:39;;;;;;;14.32;5.03;;;16.90;99.90;;;;;;5033184;28;20045;-70
2022/12/15 17:55:44;;;;;;;11.63;5.43;;;17.00;99.90;;;;;;5033557;28;20068;-70
2022/12/15 17:58:48;;;;;;;15.90;6.93;;;17.00;99.90;;;;;;5033510;28;20060;-72
2022/12/15 18:01:55;;;;;;;16.33;7.25;;;17.00;99.90;;;;;;5033406;28;20060;-73
2022/12/15 18:04:59;;;;;;;19.50;7.72;;;17.00;99.90;;;;;;5034315;28;20056;-70
2022/12/15 18:08:13;;;;;;;15.75;7.18;;;17.00;99.90;;;;;;5032774;28;20064;-70
2022/12/15 18:11:19;;;;;;;14.82;7.80;;;17.10;99.90;;;;;;5032388;28;20044;-69
2022/12/15 18:14:23;;;;;;;14.98;7.35;;;17.00;99.90;;;;;;5031946;28;20056;-69
2022/12/15 18:17:27;;;;;;;14.63;6.85;;;17.00;99.90;;;;;;5032657;28;20057;-69
2022/12/15 18:20:31;;;;;;;13.82;6.45;;;17.10;99.90;;;;;;5032058;28;20060;-69
2022/12/15 18:23:36;;;;;;;12.38;5.60;;;17.10;99.90;;;;;;5033089;28;20040;-69
2022/12/15 18:26:39;;;;;;;10.25;4.93;;;17.10;99.90;;;;;;5032793;28;20052;-69
2022/12/15 18:29:43;;;;;;;14.45;6.10;;;17.00;99.90;;;;;;5032157;28;20524;-68
2022/12/15 18:32:50;;;;;;;8.38;5.15;;;17.10;99.90;;;;;;5032127;28;20308;-68
2022/12/15 18:35:55;;;;;;;7.78;4.68;;;17.10;99.90;;;;;;5032008;28;20045;-68